Terminal Aerodrome Forecast
Issued by NWS

Home | Current Version | Previous Version | Text Only | Print | Product List | Glossary On
Versions: 1 2 3 4 5 6 7 8 9 10 11 12 13
000
FTUS46 KSTO 251139
TAFRDD
TAF
KRDD 251139Z 2512/2612 32004KT P6SM SCT250
     FM251800 17006KT P6SM OVC250
     FM260300 18011KT P6SM VCSH OVC100
     FM260700 19010KT P6SM -SHRA OVC050=

USA.gov is the U.S. government's official web portal to all federal, state and local government web resources and services.